createdAt,value
2022-10-18T00:04:36.689Z,26.63
2022-10-18T00:09:39.333Z,28.27
2022-10-18T00:14:42.185Z,26.88
2022-10-18T00:19:45.102Z,28.35
2022-10-18T00:24:47.990Z,28.23
2022-10-18T00:29:53.225Z,27.02
2022-10-18T00:34:56.804Z,29.13
2022-10-18T00:39:59.823Z,30.50
2022-10-18T00:45:25.123Z,29.65
2022-10-18T00:55:32.945Z,33.20
2022-10-18T01:05:46.760Z,29.58
2022-10-18T01:11:11.435Z,28.70
2022-10-18T01:16:39.020Z,28.23
2022-10-18T01:21:50.519Z,31.40
2022-10-18T01:27:11.100Z,31.88
2022-10-18T01:32:18.599Z,31.90
2022-10-18T01:37:21.984Z,32.17
2022-10-18T01:42:25.040Z,28.85
2022-10-18T01:47:28.453Z,32.17
2022-10-18T01:52:31.574Z,33.10
2022-10-18T01:58:02.494Z,29.02
2022-10-18T02:03:24.162Z,32.83
2022-10-18T02:08:53.140Z,33.53
2022-10-18T02:14:07.761Z,32.78
2022-10-18T02:19:16.625Z,32.08
2022-10-18T02:24:22.086Z,31.38
2022-10-18T02:29:25.209Z,30.75
2022-10-18T02:34:41.641Z,31.77
2022-10-18T02:39:48.261Z,34.53
2022-10-18T02:44:50.730Z,33.83
2022-10-18T02:50:15.421Z,27.45
2022-10-18T02:55:18.186Z,20.13
2022-10-18T03:00:20.813Z,23.05
2022-10-18T03:05:24.621Z,19.90
2022-10-18T03:10:27.107Z,21.08
2022-10-18T03:15:29.673Z,15.45
2022-10-18T03:20:33.227Z,12.63
2022-10-18T03:25:35.787Z,14.13
2022-10-18T03:30:41.498Z,12.98
2022-10-18T03:35:44.020Z,13.65
2022-10-18T03:40:46.649Z,14.50
2022-10-18T03:45:50.509Z,12.88
2022-10-18T03:50:53.684Z,9.18
2022-10-18T03:55:56.627Z,11.20
2022-10-18T04:00:59.272Z,10.57
2022-10-18T04:06:03.737Z,8.25
2022-10-18T04:11:08.583Z,7.80
2022-10-18T04:16:11.142Z,11.45
2022-10-18T04:21:13.979Z,7.43
2022-10-18T04:26:17.315Z,8.85
2022-10-18T04:31:19.902Z,8.25
2022-10-18T04:36:22.569Z,11.45
2022-10-18T04:41:26.645Z,11.25
2022-10-18T04:46:29.163Z,12.63
2022-10-18T04:51:31.757Z,7.57
2022-10-18T04:56:34.354Z,9.13
2022-10-18T05:01:37.015Z,12.85
2022-10-18T05:06:39.607Z,10.65
2022-10-18T05:11:42.460Z,10.90
2022-10-18T05:16:45.178Z,8.05
2022-10-18T05:21:47.830Z,10.18
2022-10-18T05:26:50.400Z,11.57
2022-10-18T05:31:53.088Z,8.73
2022-10-18T05:36:55.750Z,11.32
2022-10-18T05:41:58.624Z,11.65
2022-10-18T05:47:01.158Z,15.10
2022-10-18T05:52:04.131Z,18.80
2022-10-18T05:57:07.450Z,18.70
2022-10-18T06:02:11.795Z,15.18
2022-10-18T06:07:14.386Z,11.40
2022-10-18T06:12:17.075Z,13.10
2022-10-18T06:17:19.627Z,13.18
2022-10-18T06:22:22.467Z,16.55
2022-10-18T06:27:25.070Z,10.23
2022-10-18T06:32:27.697Z,9.02
2022-10-18T06:37:30.990Z,12.40
2022-10-18T06:42:34.669Z,9.80
2022-10-18T06:47:37.413Z,12.35
2022-10-18T06:52:41.595Z,10.73
2022-10-18T06:57:44.272Z,13.15
2022-10-18T07:02:46.798Z,8.27
2022-10-18T07:07:52.900Z,8.85
2022-10-18T07:13:13.625Z,10.90
2022-10-18T07:18:23.234Z,8.18
2022-10-18T07:28:54.161Z,10.65
2022-10-18T07:33:59.586Z,11.57
2022-10-18T07:39:02.209Z,8.70
2022-10-18T07:44:05.221Z,9.00
2022-10-18T07:49:07.793Z,8.38
2022-10-18T07:54:10.453Z,10.63
2022-10-18T07:59:13.692Z,10.48
2022-10-18T08:04:16.676Z,11.77
2022-10-18T08:09:19.452Z,13.63
2022-10-18T08:14:22.046Z,10.20
2022-10-18T08:19:26.065Z,13.50
2022-10-18T08:24:28.608Z,11.45
2022-10-18T08:29:32.156Z,16.38
2022-10-18T08:39:41.134Z,16.48
2022-10-18T08:44:46.381Z,12.43
2022-10-18T08:49:56.723Z,11.25
2022-10-18T08:55:02.145Z,11.65
2022-10-18T09:00:19.362Z,13.02
2022-10-18T09:05:29.923Z,14.60
2022-10-18T09:10:48.099Z,14.90
2022-10-18T09:16:06.297Z,16.23
2022-10-18T09:21:20.576Z,17.17
2022-10-18T09:26:40.243Z,16.50
2022-10-18T09:32:24.311Z,13.00
2022-10-18T09:37:29.824Z,12.70
2022-10-18T09:42:36.514Z,17.02
2022-10-18T09:47:47.561Z,11.77
2022-10-18T09:53:17.846Z,11.75
2022-10-18T09:58:21.025Z,16.63
2022-10-18T10:03:23.606Z,14.90
2022-10-18T10:08:33.420Z,10.82
2022-10-18T10:13:36.007Z,12.02
2022-10-18T10:18:39.684Z,10.48
2022-10-18T10:23:54.156Z,12.53
2022-10-18T10:28:57.007Z,11.68
2022-10-18T10:34:14.359Z,7.57
2022-10-18T10:39:19.355Z,8.80
2022-10-18T10:44:27.086Z,6.88
2022-10-18T10:49:41.036Z,6.80
2022-10-18T10:54:50.380Z,7.63
2022-10-18T10:59:56.461Z,6.22
2022-10-18T11:05:25.126Z,6.45
2022-10-18T11:10:31.225Z,6.35
2022-10-18T11:15:39.308Z,5.55
2022-10-18T11:20:57.540Z,5.50
2022-10-18T11:26:12.151Z,5.45
2022-10-18T11:31:48.515Z,3.67
2022-10-18T11:37:28.538Z,2.85
2022-10-18T11:42:39.841Z,2.13
2022-10-18T11:48:18.942Z,2.20
2022-10-18T11:53:51.967Z,2.10
2022-10-18T11:59:00.656Z,2.40
2022-10-18T12:04:17.877Z,2.30
2022-10-18T12:09:45.088Z,2.28
2022-10-18T12:15:21.802Z,2.20
2022-10-18T12:20:41.556Z,2.17
2022-10-18T12:25:49.556Z,1.90
2022-10-18T12:31:03.522Z,2.20
2022-10-18T12:36:06.149Z,2.25
2022-10-18T12:41:20.078Z,2.38
2022-10-18T12:46:22.881Z,2.15
2022-10-18T12:51:25.564Z,1.88
2022-10-18T12:56:28.287Z,3.35
2022-10-18T13:01:50.912Z,2.60
2022-10-18T13:06:57.116Z,2.20
2022-10-18T13:12:11.278Z,2.30
2022-10-18T13:17:36.027Z,2.60
2022-10-18T13:22:58.687Z,2.00
2022-10-18T13:28:32.527Z,2.47
2022-10-18T13:33:38.802Z,2.38
2022-10-18T13:38:51.257Z,2.22
2022-10-18T13:43:54.309Z,2.40
2022-10-18T13:49:33.692Z,1.95
2022-10-18T13:55:03.977Z,2.80
2022-10-18T14:00:48.147Z,2.03
2022-10-18T14:06:10.079Z,2.35
2022-10-18T14:11:15.493Z,2.42
2022-10-18T14:16:25.281Z,2.58
2022-10-18T14:21:34.559Z,3.03
2022-10-18T14:26:37.024Z,2.47
2022-10-18T14:31:39.736Z,2.45
2022-10-18T14:36:42.749Z,2.63
2022-10-18T14:41:51.613Z,2.58
2022-10-18T14:47:36.269Z,2.47
2022-10-18T14:52:38.891Z,2.47
2022-10-18T14:57:41.996Z,2.60
2022-10-18T15:02:44.653Z,2.37
2022-10-18T15:07:47.984Z,2.22
2022-10-18T15:13:08.597Z,1.90
2022-10-18T15:18:24.983Z,2.20
2022-10-18T15:23:31.400Z,1.95
2022-10-18T15:28:49.321Z,2.10
2022-10-18T15:33:54.234Z,2.35
2022-10-18T15:39:18.186Z,1.90
2022-10-18T15:44:47.073Z,1.90
2022-10-18T15:49:59.016Z,2.00
2022-10-18T15:55:02.900Z,2.05
2022-10-18T16:00:07.769Z,2.35
2022-10-18T16:05:20.903Z,1.73
2022-10-18T16:10:24.419Z,1.38
2022-10-18T16:15:27.412Z,1.80
2022-10-18T16:20:29.985Z,1.98
2022-10-18T16:25:32.627Z,1.85
2022-10-18T16:30:35.947Z,1.63
2022-10-18T16:35:38.921Z,1.47
2022-10-18T16:40:41.628Z,1.80
2022-10-18T16:45:44.284Z,1.90
2022-10-18T16:50:48.213Z,2.05
2022-10-18T16:55:59.325Z,1.73
2022-10-18T17:01:04.182Z,2.25
2022-10-18T17:06:30.518Z,1.90
2022-10-18T17:11:33.044Z,2.58
2022-10-18T17:16:37.093Z,1.75
2022-10-18T17:21:41.901Z,2.60
2022-10-18T17:26:44.526Z,2.17
2022-10-18T17:31:50.363Z,2.20
2022-10-18T17:36:53.047Z,2.42
2022-10-18T17:41:55.859Z,1.60
2022-10-18T17:46:59.985Z,2.42
2022-10-18T17:52:06.167Z,1.90
2022-10-18T17:57:09.890Z,1.88
2022-10-18T18:02:12.419Z,2.10
2022-10-18T18:07:14.999Z,2.13
2022-10-18T18:12:17.915Z,2.17
2022-10-18T18:17:28.706Z,2.28
2022-10-18T18:22:40.390Z,2.65
2022-10-18T18:27:45.275Z,3.50
2022-10-18T18:32:47.798Z,2.30
2022-10-18T18:37:51.560Z,2.97
2022-10-18T18:43:07.156Z,1.92
2022-10-18T18:48:19.026Z,2.40
2022-10-18T18:53:25.851Z,1.75
2022-10-18T18:58:29.771Z,1.98
2022-10-18T19:03:32.302Z,2.10
2022-10-18T19:08:36.862Z,2.08
2022-10-18T19:13:39.365Z,2.10
2022-10-18T19:18:42.097Z,2.20
2022-10-18T19:23:44.569Z,4.28
2022-10-18T19:28:47.442Z,3.45
2022-10-18T19:33:59.359Z,4.05
2022-10-18T19:39:23.120Z,3.97
2022-10-18T19:44:28.978Z,3.80
2022-10-18T19:49:32.032Z,4.07
2022-10-18T19:54:34.615Z,3.78
2022-10-18T19:59:37.588Z,3.75
2022-10-18T20:04:40.172Z,3.78
2022-10-18T20:09:42.827Z,3.13
2022-10-18T20:14:45.455Z,2.97
2022-10-18T20:19:49.808Z,3.47
2022-10-18T20:24:52.386Z,3.20
2022-10-18T20:29:54.963Z,3.50
2022-10-18T20:34:58.136Z,3.95
2022-10-18T20:40:00.934Z,4.57
2022-10-18T20:50:11.949Z,4.22
2022-10-18T20:55:14.529Z,4.10
2022-10-18T21:00:17.143Z,4.90
2022-10-18T21:05:19.611Z,3.38
2022-10-18T21:10:22.411Z,4.38
2022-10-18T21:15:24.958Z,4.03
2022-10-18T21:20:31.676Z,4.10
2022-10-18T21:25:35.223Z,3.70
2022-10-18T21:30:40.406Z,3.78
2022-10-18T21:35:42.975Z,3.78
2022-10-18T21:40:45.641Z,3.83
2022-10-18T21:45:48.961Z,3.40
2022-10-18T21:50:51.661Z,3.88
2022-10-18T21:55:54.167Z,3.25
2022-10-18T22:00:56.903Z,3.40
2022-10-18T22:06:07.560Z,3.60
2022-10-18T22:11:11.787Z,3.50
2022-10-18T22:16:15.788Z,4.03
2022-10-18T22:21:21.839Z,4.10
2022-10-18T22:26:47.363Z,3.33
2022-10-18T22:31:52.266Z,3.45
2022-10-18T22:36:57.160Z,3.22
2022-10-18T22:41:59.874Z,3.28
2022-10-18T22:47:03.213Z,3.33
2022-10-18T22:52:05.886Z,3.30
2022-10-18T22:57:09.589Z,3.40
2022-10-18T23:02:12.179Z,3.03
2022-10-18T23:07:14.706Z,3.65
2022-10-18T23:12:17.287Z,3.50
2022-10-18T23:17:19.780Z,3.58
2022-10-18T23:22:22.351Z,3.22
2022-10-18T23:27:24.905Z,3.40
2022-10-18T23:32:28.758Z,3.40
2022-10-18T23:37:31.503Z,3.38
2022-10-18T23:42:35.083Z,4.50
2022-10-18T23:47:37.630Z,3.55
2022-10-18T23:52:40.757Z,3.90
2022-10-18T23:57:43.218Z,3.85
